Time;durP1;ratioP1;P1;durP2;ratioP2;P2;SDS_P1;SDS_P2;PMS_P1;PMS_P2;Temp;Humidity;BMP_temperature;BMP_pressure;BME280_temperature;BME280_humidity;BME280_pressure;Samples;Min_cycle;Max_cycle;Signal;HPM_P1;HPM_P2
2022/02/22 00:01:03;;;;;;;34.38;10.80;;;;;;;2.88;100.00;100331.27;1725532;83;21022;-88
2022/02/22 00:03:30;;;;;;;32.63;11.08;;;;;;;2.86;100.00;100330.70;1725731;83;21080;-89
2022/02/22 00:05:56;;;;;;;33.60;11.20;;;;;;;2.85;100.00;100330.38;1725349;83;21046;-88
2022/02/22 00:08:23;;;;;;;36.08;11.90;;;;;;;2.85;100.00;100333.84;1725921;83;20955;-89
2022/02/22 00:10:48;;;;;;;33.48;11.05;;;;;;;2.85;100.00;100335.18;1725747;83;21112;-89
2022/02/22 00:13:14;;;;;;;31.02;10.78;;;;;;;2.83;100.00;100337.26;1725499;83;20892;-89
2022/02/22 00:15:40;;;;;;;32.15;11.12;;;;;;;2.79;100.00;100338.70;1725569;83;22054;-89
2022/02/22 00:18:06;;;;;;;37.45;11.73;;;;;;;2.80;100.00;100323.58;1725850;83;20888;-89
2022/02/22 00:20:33;;;;;;;41.88;11.97;;;;;;;2.80;100.00;100328.90;1722045;83;21665;-88
2022/02/22 00:22:59;;;;;;;32.48;11.88;;;;;;;2.79;100.00;100328.06;1716697;83;20992;-88
2022/02/22 00:25:25;;;;;;;31.82;10.98;;;;;;;2.78;100.00;100324.30;1716640;83;20944;-88
2022/02/22 00:27:50;;;;;;;35.63;10.90;;;;;;;2.79;100.00;100321.92;1716618;83;20881;-89
2022/02/22 00:30:18;;;;;;;33.45;11.75;;;;;;;2.76;100.00;100321.84;1716487;83;21752;-89
2022/02/22 00:32:45;;;;;;;34.45;10.58;;;;;;;2.73;100.00;100320.42;1716321;83;21492;-89
2022/02/22 00:35:12;;;;;;;33.88;10.60;;;;;;;2.75;100.00;100318.08;1716373;83;21500;-88
2022/02/22 00:37:40;;;;;;;30.95;10.70;;;;;;;2.71;100.00;100315.84;1716354;83;21224;-89
2022/02/22 00:40:08;;;;;;;29.32;10.72;;;;;;;2.72;100.00;100319.31;1716635;83;21887;-89
2022/02/22 00:42:34;;;;;;;31.37;10.68;;;;;;;2.72;100.00;100315.33;1716379;83;20928;-91
2022/02/22 00:45:01;;;;;;;34.45;10.80;;;;;;;2.70;100.00;100310.20;1716733;83;20998;-89
2022/02/22 00:47:28;;;;;;;28.87;10.65;;;;;;;2.70;100.00;100314.72;1716376;83;21106;-89
2022/02/22 00:49:54;;;;;;;29.50;10.85;;;;;;;2.68;100.00;100317.61;1716598;82;21089;-89
2022/02/22 00:52:20;;;;;;;36.40;10.53;;;;;;;2.67;100.00;100321.28;1716457;83;21083;-89
2022/02/22 00:54:46;;;;;;;30.72;10.35;;;;;;;2.69;100.00;100319.75;1716546;83;21000;-88
2022/02/22 00:57:13;;;;;;;31.80;10.93;;;;;;;2.67;100.00;100316.48;1716384;83;21075;-89
2022/02/22 00:59:39;;;;;;;32.08;10.28;;;;;;;2.65;100.00;100309.25;1716724;83;21071;-88
2022/02/22 01:02:05;;;;;;;34.70;11.97;;;;;;;2.64;100.00;100309.73;1711908;83;21293;-88
2022/02/22 01:04:31;;;;;;;28.85;10.68;;;;;;;2.65;100.00;100310.58;1716579;83;21989;-89
2022/02/22 01:06:57;;;;;;;31.20;10.60;;;;;;;2.63;100.00;100301.98;1716428;83;20944;-89
2022/02/22 01:09:23;;;;;;;32.60;11.08;;;;;;;2.62;100.00;100296.38;1716727;83;20951;-89
2022/02/22 01:11:50;;;;;;;30.35;10.53;;;;;;;2.60;100.00;100289.93;1716426;83;21047;-89
2022/02/22 01:14:17;;;;;;;32.38;10.18;;;;;;;2.55;100.00;100293.73;1716899;83;20937;-89
2022/02/22 01:16:43;;;;;;;31.00;10.25;;;;;;;2.50;100.00;100285.61;1716491;83;21203;-88
2022/02/22 01:19:10;;;;;;;29.35;11.12;;;;;;;2.42;100.00;100281.87;1716664;83;21035;-89
2022/02/22 01:21:36;;;;;;;34.30;10.80;;;;;;;2.41;100.00;100289.52;1716122;82;21067;-88
2022/02/22 01:24:05;;;;;;;31.40;10.90;;;;;;;2.35;100.00;100280.55;1716410;83;20916;-89
2022/02/22 01:26:33;;;;;;;33.88;11.85;;;;;;;2.32;100.00;100288.95;1716635;83;21098;-89
2022/02/22 01:28:59;;;;;;;33.92;11.25;;;;;;;2.28;100.00;100282.45;1716933;83;21363;-89
2022/02/22 01:31:27;;;;;;;35.05;10.70;;;;;;;2.24;100.00;100272.76;1688597;83;21058;-89
2022/02/22 01:33:57;;;;;;;33.50;10.75;;;;;;;2.24;100.00;100282.06;1716538;83;21102;-89
2022/02/22 01:36:25;;;;;;;27.62;10.72;;;;;;;2.20;100.00;100282.17;1716259;83;21035;-89
2022/02/22 01:38:52;;;;;;;35.60;11.20;;;;;;;2.19;100.00;100282.40;1716365;83;21034;-89
2022/02/22 01:41:21;;;;;;;30.60;10.75;;;;;;;2.15;100.00;100286.00;1716635;83;21138;-88
2022/02/22 01:43:47;;;;;;;38.00;12.00;;;;;;;2.13;100.00;100285.38;1716583;83;20987;-89
2022/02/22 01:46:14;;;;;;;32.85;11.78;;;;;;;2.11;100.00;100290.09;1716618;83;21035;-89
2022/02/22 01:48:40;;;;;;;39.10;12.75;;;;;;;2.07;100.00;100295.53;1716565;83;21047;-89
2022/02/22 01:51:06;;;;;;;34.80;10.32;;;;;;;2.04;100.00;100298.62;1716427;83;21046;-89
2022/02/22 01:53:33;;;;;;;34.58;11.50;;;;;;;2.02;100.00;100304.65;1716534;83;21095;-89
2022/02/22 01:56:01;;;;;;;38.42;11.55;;;;;;;2.00;100.00;100308.02;1716456;83;21654;-89
2022/02/22 01:58:29;;;;;;;36.50;12.28;;;;;;;1.99;100.00;100305.88;1716481;83;21488;-88
2022/02/22 02:00:56;;;;;;;33.85;11.93;;;;;;;2.01;100.00;100301.18;1697134;84;21099;-89
2022/02/22 02:03:22;;;;;;;31.68;11.00;;;;;;;1.98;100.00;100302.13;1697491;84;21551;-88
2022/02/22 02:05:49;;;;;;;36.03;12.13;;;;;;;1.95;100.00;100303.87;1697135;84;21098;-88
2022/02/22 02:08:15;;;;;;;32.60;11.60;;;;;;;1.91;100.00;100297.33;1697332;84;21091;-89
2022/02/22 02:10:41;;;;;;;33.42;11.40;;;;;;;1.88;100.00;100301.21;1697408;84;21043;-89
2022/02/22 02:13:07;;;;;;;37.05;11.68;;;;;;;1.85;100.00;100291.01;1697366;84;21110;-89
2022/02/22 02:15:33;;;;;;;32.45;11.05;;;;;;;1.83;100.00;100290.94;1697549;84;20896;-89
2022/02/22 02:17:59;;;;;;;30.97;11.75;;;;;;;1.77;100.00;100286.77;1697590;84;21194;-89
2022/02/22 02:20:25;;;;;;;37.78;11.35;;;;;;;1.71;100.00;100291.59;1696519;84;21120;-88
2022/02/22 02:22:51;;;;;;;32.90;11.15;;;;;;;1.68;100.00;100286.69;1690967;84;20935;-88
2022/02/22 02:25:17;;;;;;;35.15;10.98;;;;;;;1.66;100.00;100275.45;1691219;84;20956;-88
2022/02/22 02:27:43;;;;;;;32.60;11.05;;;;;;;1.61;100.00;100284.55;1691032;84;20933;-89
2022/02/22 02:30:11;;;;;;;39.03;11.75;;;;;;;1.58;100.00;100282.31;1691183;84;21129;-88
2022/02/22 02:32:38;;;;;;;29.45;10.60;;;;;;;1.54;100.00;100291.21;1690978;84;21055;-89
2022/02/22 02:35:06;;;;;;;30.50;10.38;;;;;;;1.50;100.00;100292.66;1690976;84;20955;-88
2022/02/22 02:37:38;;;;;;;33.18;10.95;;;;;;;1.49;100.00;100295.52;1691009;84;21051;-89
2022/02/22 02:40:07;;;;;;;33.88;11.75;;;;;;;1.45;100.00;100297.77;1691201;84;21012;-88
2022/02/22 02:42:34;;;;;;;32.15;11.10;;;;;;;1.42;100.00;100301.36;1690841;84;21182;-89
2022/02/22 02:45:00;;;;;;;40.28;11.75;;;;;;;1.36;100.00;100302.48;1691267;84;21058;-89
2022/02/22 02:47:26;;;;;;;32.78;11.93;;;;;;;1.34;100.00;100305.84;1667781;84;21083;-89
2022/02/22 02:49:52;;;;;;;31.05;11.48;;;;;;;1.31;100.00;100313.41;1691184;84;21060;-89
2022/02/22 02:52:18;;;;;;;27.62;10.38;;;;;;;1.28;100.00;100309.33;1691075;84;21532;-89
2022/02/22 02:54:44;;;;;;;27.67;10.60;;;;;;;1.27;100.00;100305.56;1691124;84;21098;-89
2022/02/22 02:57:10;;;;;;;33.20;11.05;;;;;;;1.24;100.00;100312.61;1699313;83;21054;-89
2022/02/22 02:59:36;;;;;;;35.03;11.65;;;;;;;1.22;100.00;100302.19;1725724;83;21058;-88
2022/02/22 03:02:02;;;;;;;36.65;11.70;;;;;;;1.22;100.00;100305.36;1725504;83;21513;-89
2022/02/22 03:04:28;;;;;;;30.57;11.57;;;;;;;1.19;100.00;100293.83;1725627;83;21058;-89
2022/02/22 03:06:55;;;;;;;38.75;12.00;;;;;;;1.19;100.00;100307.09;1693011;83;21027;-89
2022/02/22 03:09:21;;;;;;;31.50;11.73;;;;;;;1.18;100.00;100303.63;1725772;83;21016;-89
2022/02/22 03:11:48;;;;;;;35.80;11.43;;;;;;;1.14;100.00;100299.22;1725790;83;21480;-89
2022/02/22 03:14:14;;;;;;;35.40;10.65;;;;;;;1.11;100.00;100301.47;1725319;83;21027;-89
2022/02/22 03:16:40;;;;;;;30.57;11.85;;;;;;;1.07;100.00;100293.63;1725533;83;20996;-89
2022/02/22 03:19:06;;;;;;;34.30;11.85;;;;;;;1.02;100.00;100290.77;1725582;83;21113;-89
2022/02/22 03:21:33;;;;;;;30.20;11.15;;;;;;;0.98;100.00;100289.03;1725233;83;20904;-89
2022/02/22 03:23:59;;;;;;;27.62;10.25;;;;;;;0.93;100.00;100291.99;1725664;83;21090;-89
2022/02/22 03:26:27;;;;;;;30.88;10.88;;;;;;;0.84;100.00;100296.68;1725256;83;20967;-88
2022/02/22 03:28:53;;;;;;;30.05;10.80;;;;;;;0.76;100.00;100293.70;1725537;83;21070;-89
2022/02/22 03:31:18;;;;;;;30.10;11.28;;;;;;;0.72;100.00;100290.35;1725522;83;20984;-89
2022/02/22 03:33:45;;;;;;;34.27;11.03;;;;;;;0.71;100.00;100296.17;1726066;83;20876;-89
2022/02/22 03:36:11;;;;;;;35.48;12.30;;;;;;;0.65;100.00;100293.00;1692808;83;21500;-88
2022/02/22 03:38:37;;;;;;;30.37;10.72;;;;;;;0.63;100.00;100299.82;1725771;83;21083;-89
2022/02/22 03:41:03;;;;;;;35.73;12.63;;;;;;;0.62;100.00;100298.20;1725837;83;21542;-88
2022/02/22 03:43:29;;;;;;;33.80;11.28;;;;;;;0.64;100.00;100292.67;1725605;83;21172;-89
2022/02/22 03:45:56;;;;;;;33.70;12.43;;;;;;;0.67;100.00;100294.92;1725506;83;20958;-89
2022/02/22 03:48:22;;;;;;;35.13;11.48;;;;;;;0.72;100.00;100293.00;1725492;83;21322;-89
2022/02/22 03:50:48;;;;;;;34.88;12.13;;;;;;;0.77;100.00;100294.03;1692755;83;21094;-89
2022/02/22 03:53:16;;;;;;;36.38;12.53;;;;;;;0.82;100.00;100295.55;1725496;83;22443;-89
2022/02/22 03:55:43;;;;;;;32.80;11.73;;;;;;;0.89;100.00;100299.03;1725265;83;21603;-89
2022/02/22 03:58:10;;;;;;;33.70;12.18;;;;;;;0.98;100.00;100302.81;1725647;83;21007;-89
2022/02/22 04:00:35;;;;;;;29.25;12.40;;;;;;;1.03;100.00;100299.86;1725711;83;21094;-89
2022/02/22 04:03:05;;;;;;;32.20;11.03;;;;;;;1.09;100.00;100306.19;1725771;83;20981;-89
2022/02/22 04:05:33;;;;;;;33.38;11.25;;;;;;;1.14;100.00;100303.20;1725397;83;21137;-90
2022/02/22 04:07:59;;;;;;;34.55;11.38;;;;;;;1.19;100.00;100309.23;1725642;83;21148;-89
2022/02/22 04:10:25;;;;;;;32.15;12.13;;;;;;;1.29;100.00;100310.13;1725620;83;20962;-89
2022/02/22 04:12:53;;;;;;;29.20;12.00;;;;;;;1.37;100.00;100301.96;1725775;83;20963;-91
2022/02/22 04:15:19;;;;;;;36.25;12.78;;;;;;;1.44;100.00;100308.58;1663300;86;21231;-91
2022/02/22 04:17:45;;;;;;;48.85;15.30;;;;;;;1.52;100.00;100311.84;1663607;86;21508;-91
2022/02/22 04:20:12;;;;;;;50.25;16.23;;;;;;;1.56;100.00;100314.92;1663592;86;21171;-92
2022/02/22 04:22:38;;;;;;;48.70;16.15;;;;;;;1.63;100.00;100317.55;1663282;86;21071;-91
2022/02/22 04:25:06;;;;;;;62.13;19.17;;;;;;;1.68;100.00;100317.23;1663721;86;21201;-91
2022/02/22 04:27:34;;;;;;;59.73;21.57;;;;;;;1.74;100.00;100318.25;1663494;86;21020;-90
2022/02/22 04:30:00;;;;;;;73.72;23.45;;;;;;;1.80;100.00;100320.88;1663630;86;21075;-91
2022/02/22 04:32:26;;;;;;;66.07;22.67;;;;;;;1.87;100.00;100318.19;1663300;86;21144;-92
2022/02/22 04:34:52;;;;;;;74.37;23.90;;;;;;;1.92;100.00;100317.58;1663488;86;21058;-92
2022/02/22 04:37:19;;;;;;;76.22;23.87;;;;;;;1.96;100.00;100314.79;1663508;86;21044;-92
2022/02/22 04:39:50;;;;;;;76.25;25.17;;;;;;;2.02;100.00;100320.59;1640847;86;21080;-92
2022/02/22 04:42:17;;;;;;;79.80;24.52;;;;;;;2.04;100.00;100313.23;1616673;88;21654;-92
2022/02/22 04:44:46;;;;;;;88.17;27.13;;;;;;;2.07;100.00;100315.47;1617328;88;21109;-91
2022/02/22 04:47:14;;;;;;;80.50;23.30;;;;;;;2.11;100.00;100323.31;1616601;88;21121;-91
2022/02/22 04:49:40;;;;;;;92.08;25.20;;;;;;;2.14;100.00;100318.91;1617094;88;21098;-91
2022/02/22 04:52:09;;;;;;;84.42;26.35;;;;;;;2.18;100.00;100324.64;1613436;88;21520;-91
2022/02/22 04:54:36;;;;;;;90.50;26.62;;;;;;;2.20;100.00;100323.38;1616739;88;21078;-91
2022/02/22 04:57:02;;;;;;;76.87;24.07;;;;;;;2.24;100.00;100322.45;1617147;88;21173;-90
2022/02/22 04:59:28;;;;;;;81.30;24.67;;;;;;;2.26;100.00;100330.53;1617129;88;21108;-90
2022/02/22 05:01:54;;;;;;;89.70;25.62;;;;;;;2.28;100.00;100340.41;1617087;88;21106;-91
2022/02/22 05:04:20;;;;;;;92.60;24.85;;;;;;;2.30;100.00;100341.55;1617019;88;21655;-91
2022/02/22 05:06:46;;;;;;;100.67;26.20;;;;;;;2.32;100.00;100336.00;1595602;88;20935;-92
2022/02/22 05:09:13;;;;;;;96.72;27.37;;;;;;;2.37;100.00;100339.66;1599316;88;21124;-90
2022/02/22 05:11:39;;;;;;;100.02;24.47;;;;;;;2.40;100.00;100341.89;1583951;89;21088;-91
2022/02/22 05:14:07;;;;;;;88.10;25.10;;;;;;;2.45;100.00;100338.09;1583624;89;21234;-90
2022/02/22 05:16:50;;;;;;;82.17;24.10;;;;;;;2.51;100.00;100341.75;1596375;89;21633;-91
2022/02/22 05:19:17;;;;;;;100.38;25.48;;;;;;;2.46;100.00;100332.25;1589219;89;21049;-92
2022/02/22 05:21:44;;;;;;;94.00;24.55;;;;;;;2.59;100.00;100354.81;1592542;89;21700;-92
2022/02/22 05:24:10;;;;;;;83.65;23.45;;;;;;;2.65;100.00;100355.80;1605818;89;21571;-92
2022/02/22 05:26:36;;;;;;;94.87;26.12;;;;;;;2.68;100.00;100342.07;1590203;89;20925;-93
2022/02/22 05:29:03;;;;;;;90.07;23.65;;;;;;;2.72;100.00;100337.42;1601360;89;21108;-92
2022/02/22 05:31:29;;;;;;;87.30;23.47;;;;;;;2.78;100.00;100336.27;1605725;89;21561;-92
2022/02/22 05:33:57;;;;;;;104.38;26.50;;;;;;;2.85;100.00;100333.04;1605811;89;21255;-92
2022/02/22 05:36:23;;;;;;;96.87;26.05;;;;;;;2.91;100.00;100338.34;1601829;89;21092;-92
2022/02/22 05:38:49;;;;;;;100.33;26.33;;;;;;;2.97;100.00;100340.62;1633097;83;20931;-92
2022/02/22 05:41:17;;;;;;;108.22;25.12;;;;;;;3.03;100.00;100342.45;1667924;85;21137;-92
2022/02/22 05:43:46;;;;;;;93.52;24.87;;;;;;;3.11;100.00;100341.34;1660884;85;21085;-93
2022/02/22 05:46:12;;;;;;;91.30;25.30;;;;;;;3.15;100.00;100348.70;1656272;85;21192;-90
2022/02/22 05:48:38;;;;;;;86.70;23.83;;;;;;;3.21;100.00;100344.84;1661025;85;21073;-92
2022/02/22 05:51:04;;;;;;;93.47;25.52;;;;;;;3.23;100.00;100344.93;1658380;85;21021;-92
2022/02/22 05:53:30;;;;;;;99.28;25.48;;;;;;;3.27;100.00;100344.00;1650991;86;21085;-92
2022/02/22 05:55:56;;;;;;;100.30;26.10;;;;;;;3.30;100.00;100344.38;1651270;86;21085;-91
2022/02/22 05:58:22;;;;;;;94.45;23.65;;;;;;;3.30;100.00;100340.38;1651213;86;21147;-91
2022/02/22 06:00:50;;;;;;;94.13;26.02;;;;;;;3.30;100.00;100348.38;1651028;86;20993;-91
2022/02/22 06:03:16;;;;;;;91.82;23.77;;;;;;;3.37;100.00;100343.79;1651504;86;21081;-91
2022/02/22 06:05:42;;;;;;;98.82;25.85;;;;;;;3.45;100.00;100344.04;1669188;84;20997;-91
2022/02/22 06:08:08;;;;;;;94.03;24.10;;;;;;;3.55;100.00;100353.66;1692488;84;21015;-90
2022/02/22 06:10:34;;;;;;;99.58;25.27;;;;;;;3.60;100.00;100355.16;1692535;84;21930;-90
2022/02/22 06:13:00;;;;;;;102.58;26.93;;;;;;;3.66;100.00;100351.33;1664716;84;20971;-90
2022/02/22 06:15:26;;;;;;;103.90;25.85;;;;;;;3.69;100.00;100346.89;1688052;84;20979;-91
2022/02/22 06:17:53;;;;;;;97.08;24.55;;;;;;;3.70;100.00;100345.32;1692552;84;21546;-91
2022/02/22 06:20:19;;;;;;;97.57;27.22;;;;;;;3.73;100.00;100341.41;1692685;84;21066;-91
2022/02/22 06:25:13;;;;;;;92.10;26.07;;;;;;;3.81;100.00;100354.45;1615289;88;21045;-90
2022/02/22 06:27:52;;;;;;;86.95;24.82;;;;;;;3.87;100.00;100354.37;1615766;87;21084;-91
2022/02/22 06:30:21;;;;;;;87.08;24.32;;;;;;;3.95;100.00;100351.94;1588877;88;21133;-90
2022/02/22 06:32:49;;;;;;;69.55;21.07;;;;;;;4.06;100.00;100360.53;1589114;89;21182;-91
2022/02/22 06:35:16;;;;;;;99.07;27.10;;;;;;;4.14;100.00;100350.59;1588747;88;23101;-91
2022/02/22 06:37:51;;;;;;;73.50;21.27;;;;;;;4.20;100.00;100355.84;1588883;89;21150;-91
2022/02/22 06:40:17;;;;;;;90.25;25.90;;;;;;;4.28;100.00;100364.07;1587338;89;21217;-89
2022/02/22 06:42:43;;;;;;;80.15;24.23;;;;;;;4.30;100.00;100355.34;1589163;89;21087;-90
2022/02/22 06:45:10;;;;;;;58.73;19.20;;;;;;;4.37;100.00;100354.72;1589174;88;21576;-89
2022/02/22 06:47:40;;;;;;;63.02;20.17;;;;;;;4.44;100.00;100354.63;1588705;88;21547;-90
2022/02/22 06:50:09;;;;;;;48.48;16.67;;;;;;;4.47;100.00;100351.02;1592434;88;21087;-90
2022/02/22 06:52:36;;;;;;;35.38;13.55;;;;;;;4.58;100.00;100358.75;1592554;88;21625;-89
2022/02/22 06:55:05;;;;;;;46.35;14.60;;;;;;;4.66;100.00;100357.11;1592390;88;21053;-90
2022/02/22 06:57:30;;;;;;;39.50;14.68;;;;;;;4.72;100.00;100351.39;1592037;88;21121;-89
2022/02/22 07:00:03;;;;;;;32.85;13.43;;;;;;;4.81;100.00;100348.69;1592501;88;21116;-88
2022/02/22 07:02:29;;;;;;;41.98;15.03;;;;;;;4.94;100.00;100353.84;1542278;93;21119;-86
2022/02/22 07:04:56;;;;;;;41.45;14.28;;;;;;;5.06;100.00;100345.02;1542558;91;21185;-88
2022/02/22 07:07:22;;;;;;;35.60;14.03;;;;;;;5.26;100.00;100338.03;1541899;91;21622;-88
2022/02/22 07:09:48;;;;;;;30.70;11.08;;;;;;;5.51;100.00;100334.63;1541569;91;21673;-88
2022/02/22 07:12:14;;;;;;;33.05;12.68;;;;;;;5.74;100.00;100342.36;1541252;91;22101;-89
2022/02/22 07:14:40;;;;;;;32.65;12.03;;;;;;;5.97;100.00;100344.19;1541326;91;21145;-90
2022/02/22 07:17:08;;;;;;;28.40;11.40;;;;;;;6.45;100.00;100344.38;1570910;90;21032;-89
2022/02/22 07:19:34;;;;;;;24.67;10.00;;;;;;;6.92;100.00;100346.83;1559963;90;21504;-90
2022/02/22 07:22:00;;;;;;;23.27;8.83;;;;;;;7.15;100.00;100340.53;1556000;90;21218;-89
2022/02/22 07:24:26;;;;;;;30.68;10.78;;;;;;;7.21;100.00;100343.57;1601124;89;21381;-88
2022/02/22 07:26:52;;;;;;;28.20;10.08;;;;;;;7.23;100.00;100351.63;1605729;89;21099;-90
2022/02/22 07:29:22;;;;;;;21.87;7.92;;;;;;;7.25;100.00;100348.19;1605705;89;21050;-90
2022/02/22 07:31:48;;;;;;;32.63;10.93;;;;;;;7.35;100.00;100348.05;1563781;89;21075;-91
2022/02/22 07:34:15;;;;;;;19.42;7.67;;;;;;;7.58;100.00;100339.83;1624759;87;21760;-92
2022/02/22 07:36:41;;;;;;;20.60;8.48;;;;;;;8.07;100.00;100335.94;1629290;88;21151;-92
2022/02/22 07:39:08;;;;;;;19.27;8.15;;;;;;;8.16;100.00;100345.17;1629128;88;21671;-92
2022/02/22 07:41:34;;;;;;;18.52;7.53;;;;;;;8.14;100.00;100345.14;1629561;87;21059;-92
2022/02/22 07:44:00;;;;;;;23.10;8.95;;;;;;;8.10;100.00;100349.39;1629290;88;21071;-91
2022/02/22 07:46:26;;;;;;;22.25;7.83;;;;;;;8.11;100.00;100353.69;1631872;85;21067;-91
2022/02/22 07:48:53;;;;;;;16.87;7.20;;;;;;;8.19;100.00;100348.70;1638094;85;22040;-92
2022/02/22 07:51:19;;;;;;;22.40;9.35;;;;;;;8.32;100.00;100343.47;1643458;84;21046;-90
2022/02/22 07:53:47;;;;;;;21.65;8.73;;;;;;;8.35;100.00;100343.50;1664086;84;21031;-89
2022/02/22 07:56:14;;;;;;;39.73;13.38;;;;;;;8.45;100.00;100343.66;1665174;84;21559;-91
2022/02/22 07:58:41;;;;;;;17.70;7.65;;;;;;;8.71;100.00;100330.52;1661962;84;21528;-91
2022/02/22 08:01:09;;;;;;;26.10;9.70;;;;;;;9.07;100.00;100336.48;1702021;83;21168;-91
2022/02/22 08:03:36;;;;;;;17.90;7.62;;;;;;;9.46;100.00;100334.08;1701847;84;21075;-91
2022/02/22 08:06:02;;;;;;;20.43;7.42;;;;;;;9.72;100.00;100329.13;1702026;84;21019;-90
2022/02/22 08:08:29;;;;;;;18.27;7.55;;;;;;;9.76;100.00;100328.06;1701712;83;21598;-91
2022/02/22 08:10:55;;;;;;;23.30;8.03;;;;;;;9.72;100.00;100337.20;1701788;84;21082;-90
2022/02/22 08:13:21;;;;;;;14.70;7.00;;;;;;;9.68;100.00;100338.80;1702075;83;21137;-90
2022/02/22 08:15:47;;;;;;;18.23;8.20;;;;;;;9.90;100.00;100331.91;1702132;83;21004;-92
2022/02/22 08:18:13;;;;;;;21.12;8.68;;;;;;;9.93;100.00;100330.05;1702323;84;21047;-91
2022/02/22 08:20:42;;;;;;;21.00;9.10;;;;;;;9.85;100.00;100325.16;1702086;84;21043;-90
2022/02/22 08:23:09;;;;;;;19.42;8.35;;;;;;;9.68;100.00;100327.23;1701933;83;21066;-90
2022/02/22 08:25:35;;;;;;;21.75;9.55;;;;;;;9.55;100.00;100329.83;1702270;84;21295;-90
2022/02/22 08:28:08;;;;;;;21.23;9.35;;;;;;;9.41;100.00;100319.24;1702302;83;21082;-90
2022/02/22 08:30:34;;;;;;;;;;;;;;;9.38;100.00;100324.59;1700814;84;21138;-90
2022/02/22 08:33:00;;;;;;;18.15;8.98;;;;;;;9.45;100.00;100328.44;1702176;83;20184;-92
2022/02/22 08:35:26;;;;;;;23.60;9.80;;;;;;;9.58;100.00;100327.16;1702073;82;21015;-89
2022/02/22 08:37:54;;;;;;;21.48;10.38;;;;;;;9.73;100.00;100324.55;1702185;84;21239;-90
2022/02/22 08:40:21;;;;;;;22.85;10.13;;;;;;;10.01;100.00;100323.36;1701690;83;20972;-90
2022/02/22 08:42:47;;;;;;;20.02;9.75;;;;;;;10.29;100.00;100319.44;1702136;83;21145;-91
2022/02/22 08:45:13;;;;;;;20.92;9.90;;;;;;;11.15;100.00;100308.54;1702032;84;21051;-91
2022/02/22 08:47:39;;;;;;;20.27;9.30;;;;;;;12.70;100.00;100301.77;1702073;84;21504;-91
2022/02/22 08:50:06;;;;;;;13.88;7.70;;;;;;;14.83;100.00;100288.06;1711702;80;21788;-92
2022/02/22 08:52:32;;;;;;;17.60;8.65;;;;;;;16.88;100.00;100307.16;1702088;84;21587;-93
2022/02/22 08:54:58;;;;;;;14.65;8.00;;;;;;;18.01;100.00;100300.40;1729868;82;21047;-93
2022/02/22 08:57:26;;;;;;;13.65;7.95;;;;;;;19.02;92.21;100307.15;1731635;82;21031;-92
2022/02/22 08:59:52;;;;;;;14.73;7.70;;;;;;;19.80;82.47;100298.75;1730935;82;21031;-91
2022/02/22 09:02:18;;;;;;;15.53;8.53;;;;;;;19.71;71.74;100306.20;1731402;82;21469;-91
2022/02/22 09:04:45;;;;;;;20.27;9.20;;;;;;;18.66;58.41;100302.81;1732875;82;20994;-93
2022/02/22 09:07:11;;;;;;;18.02;7.80;;;;;;;17.44;62.41;100293.48;1731444;82;21028;-90
2022/02/22 09:09:37;;;;;;;20.92;9.20;;;;;;;16.34;62.00;100296.91;1731602;81;21083;-91
2022/02/22 09:12:04;;;;;;;22.65;9.08;;;;;;;15.67;67.38;100303.42;1731536;82;21035;-92
2022/02/22 09:14:31;;;;;;;20.92;9.58;;;;;;;15.14;71.19;100297.05;1722602;81;22019;-89
2022/02/22 09:16:58;;;;;;;24.07;9.08;;;;;;;14.89;77.04;100292.30;1690054;82;21062;-91
2022/02/22 09:19:24;;;;;;;22.87;8.95;;;;;;;14.93;80.29;100291.96;1711828;80;21055;-92
2022/02/22 09:21:50;;;;;;;25.52;9.60;;;;;;;15.16;78.48;100285.35;1705457;82;21114;-92
2022/02/22 09:24:16;;;;;;;27.73;10.32;;;;;;;14.92;76.14;100271.92;1700314;83;21020;-93
2022/02/22 09:26:43;;;;;;;27.13;9.78;;;;;;;14.83;79.62;100291.34;1730466;81;21004;-91
2022/02/22 09:29:09;;;;;;;28.30;10.43;;;;;;;14.83;83.07;100290.78;1730237;81;21035;-90
2022/02/22 09:31:35;;;;;;;22.25;9.38;;;;;;;14.81;81.63;100292.97;1730239;82;20984;-91
2022/02/22 09:34:02;;;;;;;27.82;10.85;;;;;;;14.69;76.47;100289.91;1755169;80;21992;-91
2022/02/22 09:36:28;;;;;;;26.33;10.88;;;;;;;14.47;77.51;100290.46;1758605;80;21582;-92
2022/02/22 09:38:54;;;;;;;30.75;11.00;;;;;;;14.32;77.71;100286.06;1758771;80;21126;-93
2022/02/22 09:41:20;;;;;;;24.87;11.00;;;;;;;14.25;79.60;100280.20;1730691;81;20888;-94
2022/02/22 09:43:46;;;;;;;25.52;10.43;;;;;;;14.25;80.04;100281.56;1758889;80;20895;-92
2022/02/22 09:46:13;;;;;;;26.07;10.90;;;;;;;14.29;80.70;100264.96;1758566;80;21018;-92
2022/02/22 09:48:39;;;;;;;27.30;10.78;;;;;;;14.14;79.81;100266.53;1758966;80;21010;-91
2022/02/22 09:51:05;;;;;;;26.20;10.28;;;;;;;13.99;81.73;100267.53;1748788;80;21054;-92
2022/02/22 09:53:32;;;;;;;28.45;11.08;;;;;;;13.85;81.62;100261.48;1754469;80;21550;-91
2022/02/22 09:55:58;;;;;;;24.60;10.85;;;;;;;13.61;81.23;100250.64;1758524;80;21034;-92
2022/02/22 09:58:35;;;;;;;24.37;10.30;;;;;;;13.37;85.34;100251.99;1758329;80;20956;-92
2022/02/22 10:01:31;;;;;;;22.35;9.48;;;;;;;13.33;89.50;100259.08;1666837;84;21137;-91
2022/02/22 10:03:59;;;;;;;27.27;11.00;;;;;;;13.48;92.62;100244.58;1660738;84;21182;-91
2022/02/22 10:06:26;;;;;;;29.07;10.35;;;;;;;13.65;89.88;100233.30;1665534;84;20950;-90
2022/02/22 10:08:56;;;;;;;23.98;9.53;;;;;;;13.87;88.17;100238.16;1662916;84;21061;-91
2022/02/22 10:11:23;;;;;;;32.53;10.18;;;;;;;13.87;85.65;100242.22;1666740;84;21097;-90
2022/02/22 10:13:50;;;;;;;28.12;10.68;;;;;;;13.80;86.96;100241.23;1667241;84;21042;-93
2022/02/22 10:16:16;;;;;;;24.70;9.88;;;;;;;13.22;80.76;100210.18;1667314;84;21153;-88
2022/02/22 10:18:52;;;;;;;33.70;11.10;;;;;;;13.22;80.76;100210.18;1644467;86;21476;-90
2022/02/22 10:21:19;;;;;;;28.32;10.78;;;;;;;13.14;86.70;100232.44;1667164;85;21086;-91
2022/02/22 10:23:46;;;;;;;28.67;10.88;;;;;;;13.22;89.87;100233.73;1654749;84;21706;-89
2022/02/22 10:26:26;;;;;;;34.58;11.20;;;;;;;13.30;89.64;100231.24;1647472;87;21090;-91
2022/02/22 10:28:53;;;;;;;33.98;10.10;;;;;;;13.33;88.22;100222.55;1647644;87;21281;-92
2022/02/22 10:31:35;;;;;;;26.48;10.08;;;;;;;13.19;82.53;100225.64;1647512;87;21000;-90
2022/02/22 10:34:01;;;;;;;26.90;10.80;;;;;;;13.19;82.53;100225.64;1647740;86;21138;-90
2022/02/22 10:36:34;;;;;;;26.90;10.55;;;;;;;13.07;82.18;100231.44;1625550;87;21095;-89
2022/02/22 10:39:15;;;;;;;28.87;11.83;;;;;;;13.07;82.18;100231.44;1645568;87;21119;-90
2022/02/22 10:41:44;;;;;;;34.88;12.18;;;;;;;13.09;81.74;100237.37;1647216;87;21073;-90
2022/02/22 10:44:12;;;;;;;29.45;10.93;;;;;;;13.08;82.41;100237.65;1612319;87;21113;-90
2022/02/22 10:46:45;;;;;;;28.60;10.98;;;;;;;13.04;78.65;100232.55;1641735;87;21143;-90
2022/02/22 10:49:13;;;;;;;29.95;11.43;;;;;;;13.05;83.32;100236.31;1644458;87;21232;-89
2022/02/22 10:51:51;;;;;;;36.83;12.13;;;;;;;13.17;85.09;100240.79;1568193;90;21158;-90
2022/02/22 10:54:23;;;;;;;30.12;12.07;;;;;;;13.32;84.82;100236.35;1568163;88;21052;-91
2022/02/22 10:56:50;;;;;;;34.67;13.18;;;;;;;13.44;84.69;100242.17;1568354;90;21123;-91
2022/02/22 10:59:23;;;;;;;33.75;11.22;;;;;;;13.52;81.99;100233.42;1565034;90;21124;-89
2022/02/22 11:01:50;;;;;;;;;;;;;;;13.51;79.44;100234.53;1565581;90;21160;-90
2022/02/22 11:04:16;;;;;;;32.58;11.05;;;;;;;13.52;80.97;100240.74;1563743;90;20451;-88
2022/02/22 11:06:42;;;;;;;28.75;10.72;;;;;;;13.55;80.08;100242.32;1557380;90;21104;-90
2022/02/22 11:09:14;;;;;;;29.63;10.68;;;;;;;13.51;77.71;100239.94;1563993;90;21625;-90
2022/02/22 11:12:00;;;;;;;28.92;10.25;;;;;;;13.47;76.24;100238.09;1561423;90;21105;-90
2022/02/22 11:14:33;;;;;;;35.50;10.78;;;;;;;13.32;76.60;100241.21;1564104;90;21065;-88